createdAt,value
2022-09-04T00:22:37.193Z,100818.41
2022-09-04T00:25:50.645Z,100814.88
2022-09-04T00:28:45.497Z,100830.00
2022-09-04T00:31:29.911Z,100827.00
2022-09-04T00:34:03.126Z,100827.00
2022-09-04T00:36:31.207Z,100831.38
2022-09-04T00:39:03.583Z,100824.97
2022-09-04T00:41:41.152Z,100816.91
2022-09-04T00:44:42.431Z,100820.75
2022-09-04T00:47:27.652Z,100814.88
2022-09-04T00:50:08.206Z,100820.44
2022-09-04T00:52:41.771Z,100824.97
2022-09-04T00:55:30.325Z,100817.88
2022-09-04T00:58:17.464Z,100819.41
2022-09-04T01:00:47.346Z,100824.63
2022-09-04T01:03:32.631Z,100821.94
2022-09-04T01:06:22.268Z,100811.84
2022-09-04T01:09:34.231Z,100818.91
2022-09-04T01:12:07.761Z,100815.38
2022-09-04T01:15:01.900Z,100823.78
2022-09-04T01:17:41.995Z,100821.09
2022-09-04T01:20:44.784Z,100820.44
2022-09-04T01:23:36.740Z,100811.47
2022-09-04T01:26:21.506Z,100817.75
2022-09-04T01:29:16.020Z,100816.88
2022-09-04T01:32:32.986Z,100824.31
2022-09-04T01:35:17.647Z,100817.19
2022-09-04T01:38:13.381Z,100814.50
2022-09-04T01:41:01.934Z,100808.59
2022-09-04T01:43:33.176Z,100810.66
2022-09-04T01:46:16.148Z,100810.78
2022-09-04T01:48:58.509Z,100811.97
2022-09-04T01:51:54.384Z,100813.16
2022-09-04T01:54:50.634Z,100819.53
2022-09-04T01:57:45.680Z,100819.53
2022-09-04T02:00:18.454Z,100823.25
2022-09-04T02:03:09.094Z,100817.72
2022-09-04T02:05:55.136Z,100814.66
2022-09-04T02:08:43.480Z,100815.34
2022-09-04T02:11:16.928Z,100814.19
2022-09-04T02:14:06.747Z,100814.69
2022-09-04T02:17:02.318Z,100802.56
2022-09-04T02:19:52.180Z,100810.50
2022-09-04T02:22:40.053Z,100813.00
2022-09-04T02:25:30.222Z,100811.16
2022-09-04T02:28:19.527Z,100805.59
2022-09-04T02:31:05.926Z,100806.78
2022-09-04T02:33:48.980Z,100803.41
2022-09-04T02:36:35.280Z,100805.44
2022-09-04T02:39:15.133Z,100793.81
2022-09-04T02:41:51.177Z,100801.72
2022-09-04T02:44:24.802Z,100806.09
2022-09-04T02:47:14.741Z,100781.19
2022-09-04T02:49:55.489Z,100782.69
2022-09-04T02:52:33.811Z,100781.69
2022-09-04T02:55:30.535Z,100783.34
2022-09-04T02:58:23.251Z,100777.13
2022-09-04T03:01:22.477Z,100770.72
2022-09-04T03:04:37.887Z,100760.97
2022-09-04T03:07:20.885Z,100754.72
2022-09-04T03:10:19.893Z,100753.91
2022-09-04T03:13:04.276Z,100743.75
2022-09-04T03:15:45.791Z,100736.69
2022-09-04T03:18:25.665Z,100755.75
2022-09-04T03:20:59.489Z,100759.09
2022-09-04T03:23:39.277Z,100752.03
2022-09-04T03:26:29.989Z,100749.34
2022-09-04T03:29:22.074Z,100751.84
2022-09-04T03:32:13.487Z,100752.88
2022-09-04T03:34:55.314Z,100750.03
2022-09-04T03:37:41.253Z,100759.59
2022-09-04T03:40:08.816Z,100753.22
2022-09-04T03:42:39.085Z,100742.44
2022-09-04T03:45:34.313Z,100739.06
2022-09-04T03:48:26.041Z,100747.97
2022-09-04T03:50:59.782Z,100745.47
2022-09-04T03:53:30.621Z,100739.06
2022-09-04T03:56:19.544Z,100732.97
2022-09-04T03:58:47.107Z,100734.50
2022-09-04T04:01:33.398Z,100733.47
2022-09-04T04:04:39.958Z,100743.28
2022-09-04T04:07:20.663Z,100748.47
2022-09-04T04:10:00.165Z,100746.63
2022-09-04T04:13:12.422Z,100748.47
2022-09-04T04:15:57.708Z,100750.53
2022-09-04T04:18:43.687Z,100750.53
2022-09-04T04:21:21.834Z,100736.38
2022-09-04T04:23:58.455Z,100743.75
2022-09-04T04:26:54.098Z,100745.81
2022-09-04T04:29:40.823Z,100738.22
2022-09-04T04:32:42.335Z,100747.31
2022-09-04T04:35:25.661Z,100751.88
2022-09-04T04:38:15.879Z,100745.63
2022-09-04T04:41:17.537Z,100752.03
2022-09-04T04:43:56.783Z,100746.81
2022-09-04T04:46:27.274Z,100744.28
2022-09-04T04:49:04.525Z,100748.66
2022-09-04T04:51:54.021Z,100753.22
2022-09-04T04:54:46.457Z,100747.84
2022-09-04T04:57:45.380Z,100738.88
2022-09-04T05:00:25.215Z,100744.28
2022-09-04T05:03:17.092Z,100738.03
2022-09-04T05:06:00.124Z,100755.03
2022-09-04T05:08:57.119Z,100746.13
2022-09-04T05:11:48.832Z,100750.69
2022-09-04T05:14:38.101Z,100746.97
2022-09-04T05:17:30.003Z,100745.13
2022-09-04T05:20:16.562Z,100748.81
2022-09-04T05:22:57.071Z,100755.72
2022-09-04T05:25:54.104Z,100753.38
2022-09-04T05:28:40.853Z,100748.16
2022-09-04T05:31:56.034Z,100750.16
2022-09-04T05:34:29.240Z,100749.16
2022-09-04T05:37:23.690Z,100751.19
2022-09-04T05:40:07.138Z,100752.03
2022-09-04T05:42:59.648Z,100752.38
2022-09-04T05:45:58.483Z,100755.06
2022-09-04T05:48:58.314Z,100760.25
2022-09-04T05:51:45.152Z,100755.91
2022-09-04T05:54:48.141Z,100765.66
2022-09-04T05:57:23.289Z,100754.88
2022-09-04T05:59:51.141Z,100759.28
2022-09-04T06:02:37.495Z,100756.59
2022-09-04T06:05:24.390Z,100755.56
2022-09-04T06:07:51.965Z,100759.28
2022-09-04T06:10:22.324Z,100750.16
2022-09-04T06:13:13.540Z,100762.81
2022-09-04T06:16:26.027Z,100763.66
2022-09-04T06:19:24.680Z,100774.44
2022-09-04T06:22:11.022Z,100763.66
2022-09-04T06:24:38.559Z,100759.94
2022-09-04T06:27:45.234Z,100764.47
2022-09-04T06:30:14.684Z,100767.88
2022-09-04T06:33:03.788Z,100779.47
2022-09-04T06:35:36.439Z,100777.47
2022-09-04T06:38:28.526Z,100793.66
2022-09-04T06:40:56.320Z,100796.16
2022-09-04T06:43:44.071Z,100803.22
2022-09-04T06:46:21.926Z,100796.16
2022-09-04T06:49:09.822Z,100802.56
2022-09-04T06:51:53.624Z,100813.00
2022-09-04T06:55:00.291Z,100820.06
2022-09-04T06:57:41.329Z,100830.03
2022-09-04T07:00:14.626Z,100831.56
2022-09-04T07:03:23.987Z,100836.75
2022-09-04T07:06:00.953Z,100850.09
2022-09-04T07:08:34.747Z,100849.53
2022-09-04T07:11:17.569Z,100862.03
2022-09-04T07:14:20.292Z,100863.88
2022-09-04T07:17:21.978Z,100884.75
2022-09-04T07:19:58.945Z,100884.56
2022-09-04T07:23:02.780Z,100878.34
2022-09-04T07:25:30.309Z,100885.59
2022-09-04T07:28:07.110Z,100888.28
2022-09-04T07:30:44.730Z,100894.00
2022-09-04T07:33:23.572Z,100903.25
2022-09-04T07:36:01.255Z,100899.06
2022-09-04T07:39:05.856Z,100896.53
2022-09-04T07:41:56.552Z,100894.84
2022-09-04T07:44:34.636Z,100900.22
2022-09-04T07:47:23.134Z,100891.13
2022-09-04T07:50:10.332Z,100883.03
2022-09-04T07:52:43.863Z,100887.28
2022-09-04T07:55:15.180Z,100899.06
2022-09-04T07:57:49.192Z,100896.84
2022-09-04T08:00:23.398Z,100894.34
2022-09-04T08:03:25.494Z,100900.72
2022-09-04T08:06:24.425Z,100888.25
2022-09-04T08:09:10.782Z,100895.81
2022-09-04T08:11:53.574Z,100887.22
2022-09-04T08:14:33.661Z,100902.03
2022-09-04T08:17:24.582Z,100905.88
2022-09-04T08:20:12.740Z,100890.06
2022-09-04T08:23:04.594Z,100887.00
2022-09-04T08:26:14.247Z,100867.63
2022-09-04T08:29:07.330Z,100845.88
2022-09-04T08:32:13.932Z,100848.91
2022-09-04T08:34:56.919Z,100902.09
2022-09-04T08:37:33.695Z,100929.16
2022-09-04T08:40:35.356Z,100918.38
2022-09-04T08:43:17.834Z,100921.78
2022-09-04T08:46:15.199Z,100906.78
2022-09-04T08:49:01.329Z,100897.69
2022-09-04T08:51:50.282Z,100891.00
2022-09-04T08:54:48.560Z,100896.91
2022-09-04T08:57:31.298Z,100898.25
2022-09-04T09:00:22.271Z,100892.69
2022-09-04T09:03:31.296Z,100896.94
2022-09-04T09:06:25.984Z,100896.28
2022-09-04T09:09:24.616Z,100911.41
2022-09-04T09:12:20.186Z,100918.53
2022-09-04T09:15:25.461Z,100922.75
2022-09-04T09:18:41.609Z,100924.06
2022-09-04T09:21:31.531Z,100938.22
2022-09-04T09:24:36.610Z,100943.75
2022-09-04T09:27:13.235Z,100946.28
2022-09-04T09:29:53.551Z,100933.66
2022-09-04T09:32:39.905Z,100952.38
2022-09-04T09:35:23.528Z,100954.06
2022-09-04T09:38:20.049Z,100954.06
2022-09-04T09:41:12.675Z,100951.38
2022-09-04T09:43:58.453Z,100949.19
2022-09-04T09:46:58.413Z,100948.03
2022-09-04T09:49:51.005Z,100962.34
2022-09-04T09:52:18.547Z,100965.38
2022-09-04T09:55:06.026Z,100974.84
2022-09-04T09:57:59.562Z,100977.03
2022-09-04T10:00:38.964Z,100979.25
2022-09-04T10:03:40.631Z,100982.81
2022-09-04T10:06:27.197Z,100978.72
2022-09-04T10:09:16.085Z,100976.03
2022-09-04T10:12:06.966Z,100983.78
2022-09-04T10:14:52.559Z,100981.47
2022-09-04T10:17:41.414Z,101008.09
2022-09-04T10:20:34.477Z,100998.97
2022-09-04T10:23:23.086Z,101005.59
2022-09-04T10:26:40.098Z,100997.31
2022-09-04T10:29:29.311Z,101001.44
2022-09-04T10:32:35.517Z,100997.53
2022-09-04T10:35:31.648Z,101003.16
2022-09-04T10:38:17.308Z,101000.47
2022-09-04T10:40:57.225Z,100996.47
2022-09-04T10:44:02.190Z,101002.91
2022-09-04T10:46:40.514Z,100999.53
2022-09-04T10:49:48.955Z,101020.66
2022-09-04T10:52:53.767Z,101031.28
2022-09-04T10:55:55.468Z,101030.75
2022-09-04T10:58:31.011Z,101037.50
2022-09-04T11:01:08.564Z,101031.78
2022-09-04T11:03:54.641Z,101028.88
2022-09-04T11:06:27.924Z,101038.78
2022-09-04T11:09:10.645Z,101047.34
2022-09-04T11:12:03.657Z,101044.66
2022-09-04T11:14:56.318Z,101051.81
2022-09-04T11:17:57.578Z,101059.28
2022-09-04T11:20:59.125Z,101064.66
2022-09-04T11:23:57.458Z,101054.41
2022-09-04T11:27:10.047Z,101058.63
2022-09-04T11:29:56.378Z,101061.84
2022-09-04T11:32:52.188Z,101063.63
2022-09-04T11:35:25.988Z,101059.50
2022-09-04T11:38:30.071Z,101055.03
2022-09-04T11:41:24.573Z,101068.47
2022-09-04T11:44:10.271Z,101069.78
2022-09-04T11:46:53.037Z,101072.38
2022-09-04T11:50:05.562Z,101078.16
2022-09-04T11:53:02.605Z,101086.66
2022-09-04T11:55:59.337Z,101082.09
2022-09-04T11:58:48.561Z,101092.41
2022-09-04T12:01:25.181Z,101092.25
2022-09-04T12:04:01.661Z,101090.22
2022-09-04T12:06:38.171Z,101090.94
2022-09-04T12:09:31.318Z,101109.91
2022-09-04T12:12:41.737Z,101120.91
2022-09-04T12:15:18.879Z,101116.81
2022-09-04T12:18:21.274Z,101120.59
2022-09-04T12:21:01.316Z,101110.16
2022-09-04T12:23:56.926Z,101130.78
2022-09-04T12:26:51.550Z,101120.00
2022-09-04T12:29:23.969Z,101121.72
2022-09-04T12:32:16.263Z,101118.97
2022-09-04T12:34:54.586Z,101120.94
2022-09-04T12:37:37.475Z,101112.84
2022-09-04T12:40:22.030Z,101126.13
2022-09-04T12:43:16.653Z,101126.59
2022-09-04T12:46:04.467Z,101119.88
2022-09-04T12:48:56.780Z,101121.13
2022-09-04T12:51:28.057Z,101129.72
2022-09-04T12:54:20.328Z,101130.34
2022-09-04T12:57:06.772Z,101125.31
2022-09-04T13:00:01.502Z,101125.50
2022-09-04T13:02:32.720Z,101125.94
2022-09-04T13:05:12.569Z,101126.16
2022-09-04T13:08:00.445Z,101130.53
2022-09-04T13:10:39.020Z,101127.41
2022-09-04T13:13:12.835Z,101128.06
2022-09-04T13:15:58.673Z,101140.66
2022-09-04T13:18:26.571Z,101143.56
2022-09-04T13:21:31.002Z,101140.34
2022-09-04T13:24:16.115Z,101142.28
2022-09-04T13:27:07.830Z,101143.56
2022-09-04T13:30:03.015Z,101145.50
2022-09-04T13:32:50.642Z,101144.19
2022-09-04T13:35:42.841Z,101145.03
2022-09-04T13:38:17.860Z,101152.38
2022-09-04T13:41:30.283Z,101155.97
2022-09-04T13:44:28.966Z,101155.34
2022-09-04T13:47:10.135Z,101148.25
2022-09-04T13:49:47.977Z,101158.91
2022-09-04T13:52:24.390Z,101147.00
2022-09-04T13:55:03.593Z,101158.47
2022-09-04T13:57:41.823Z,101163.53
2022-09-04T14:00:12.137Z,101156.81
2022-09-04T14:02:42.005Z,101155.31
2022-09-04T14:05:13.456Z,101158.03
2022-09-04T14:07:45.604Z,101161.38
2022-09-04T14:10:21.542Z,101159.94
2022-09-04T14:12:58.096Z,101151.50
2022-09-04T14:15:44.798Z,101147.53
2022-09-04T14:18:27.491Z,101157.81
2022-09-04T14:21:01.120Z,101152.97
2022-09-04T14:23:48.561Z,101160.13
2022-09-04T14:26:17.188Z,101151.09
2022-09-04T14:28:51.229Z,101158.63
2022-09-04T14:31:49.056Z,101171.97
2022-09-04T14:34:37.639Z,101164.97
2022-09-04T14:37:54.208Z,101152.56
2022-09-04T14:40:27.474Z,101155.66
2022-09-04T14:43:04.109Z,101168.53
2022-09-04T14:45:46.902Z,101155.06
2022-09-04T14:48:17.760Z,101161.13
2022-09-04T14:50:50.669Z,101165.69
2022-09-04T14:53:35.559Z,101171.75
2022-09-04T14:56:23.545Z,101164.56
2022-09-04T14:59:13.045Z,101164.78
2022-09-04T15:02:12.755Z,101170.47
2022-09-04T15:05:01.517Z,101175.41
2022-09-04T15:07:55.056Z,101164.25
2022-09-04T15:10:29.079Z,101168.06
2022-09-04T15:13:18.981Z,101172.59
2022-09-04T15:15:58.462Z,101169.94
2022-09-04T15:18:31.782Z,101172.78
2022-09-04T15:21:21.253Z,101182.81
2022-09-04T15:24:15.541Z,101179.50
2022-09-04T15:26:58.516Z,101183.81
2022-09-04T15:29:54.562Z,101185.97
2022-09-04T15:32:25.503Z,101176.28
2022-09-04T15:35:11.843Z,101184.84
2022-09-04T15:37:40.531Z,101181.03
2022-09-04T15:40:54.332Z,101181.28
2022-09-04T15:43:46.923Z,101167.69
2022-09-04T15:46:33.074Z,101174.09
2022-09-04T15:49:21.487Z,101184.72
2022-09-04T15:52:12.955Z,101177.44
2022-09-04T15:54:40.813Z,101183.59
2022-09-04T15:57:29.589Z,101180.94
2022-09-04T16:00:08.877Z,101168.22
2022-09-04T16:03:06.853Z,101173.88
2022-09-04T16:05:44.923Z,101176.72
2022-09-04T16:08:28.704Z,101178.06
2022-09-04T16:11:01.671Z,101173.97
2022-09-04T16:13:50.949Z,101168.84
2022-09-04T16:16:42.300Z,101162.50
2022-09-04T16:19:25.292Z,101167.91
2022-09-04T16:22:09.067Z,101166.88
2022-09-04T16:24:51.087Z,101178.78
2022-09-04T16:27:23.427Z,101173.72
2022-09-04T16:30:03.052Z,101163.25
2022-09-04T16:32:35.337Z,101168.13
2022-09-04T16:35:19.528Z,101172.81
2022-09-04T16:38:05.246Z,101177.34
2022-09-04T16:41:14.760Z,101183.16
2022-09-04T16:44:08.033Z,101187.41
2022-09-04T16:46:40.229Z,101183.66
2022-09-04T16:49:19.780Z,101179.91
2022-09-04T16:52:02.081Z,101189.63
2022-09-04T16:54:35.890Z,101185.03
2022-09-04T16:57:13.609Z,101194.22
2022-09-04T16:59:48.822Z,101188.22
2022-09-04T17:02:22.504Z,101195.44
2022-09-04T17:04:59.345Z,101186.00
2022-09-04T17:07:38.375Z,101184.03
2022-09-04T17:10:36.276Z,101186.53
2022-09-04T17:13:27.598Z,101193.94
2022-09-04T17:16:02.589Z,101194.22
2022-09-04T17:18:31.499Z,101201.25
2022-09-04T17:28:57.382Z,101180.00
2022-09-04T17:29:03.186Z,101193.78
2022-09-04T17:29:15.035Z,101177.38
2022-09-04T17:31:07.647Z,101187.75
2022-09-04T17:39:15.537Z,101181.66
2022-09-04T17:40:49.396Z,101191.59
2022-09-04T17:40:51.163Z,101187.84
2022-09-04T17:43:11.209Z,101193.94
2022-09-04T17:45:46.660Z,101201.72
2022-09-04T17:48:20.611Z,101210.69
2022-09-04T17:50:53.065Z,101218.09
2022-09-04T17:53:34.123Z,101214.91
2022-09-04T17:56:17.651Z,101216.28
2022-09-04T17:58:54.334Z,101213.78
2022-09-04T18:01:28.833Z,101218.06
2022-09-04T18:04:21.244Z,101219.19
2022-09-04T18:08:06.983Z,101225.38
2022-09-04T18:10:02.334Z,101225.44
2022-09-04T18:12:52.219Z,101224.28
2022-09-04T18:15:34.707Z,101220.13
2022-09-04T18:18:17.855Z,101222.03
2022-09-04T18:21:08.290Z,101228.94
2022-09-04T18:23:56.766Z,101232.91
2022-09-04T18:26:41.495Z,101239.38
2022-09-04T18:30:33.973Z,101244.03
2022-09-04T18:37:22.285Z,101239.50
2022-09-04T18:37:24.932Z,101236.16
2022-09-04T18:38:44.235Z,101225.38
2022-09-04T18:45:11.333Z,101225.06
2022-09-04T18:50:22.298Z,101226.75
2022-09-04T18:50:33.639Z,101221.38
2022-09-04T18:50:51.557Z,101232.25
2022-09-04T18:53:20.187Z,101237.34
2022-09-04T18:55:54.684Z,101223.50
2022-09-04T18:58:22.190Z,101216.91
2022-09-04T19:00:55.799Z,101220.50
2022-09-04T19:03:37.158Z,101214.25
2022-09-04T19:06:17.352Z,101218.69
2022-09-04T19:08:51.770Z,101216.47
2022-09-04T19:11:26.983Z,101218.03
2022-09-04T19:14:10.562Z,101225.13
2022-09-04T19:16:49.156Z,101219.56
2022-09-04T19:19:22.707Z,101238.19
2022-09-04T19:22:01.939Z,101236.97
2022-09-04T19:24:39.602Z,101240.19
2022-09-04T19:27:26.485Z,101228.19
2022-09-04T19:30:03.156Z,101241.19
2022-09-04T19:33:03.545Z,101240.00
2022-09-04T19:35:47.235Z,101233.25
2022-09-04T19:44:38.670Z,101225.63
2022-09-04T19:46:00.357Z,101222.75
2022-09-04T19:46:01.576Z,101221.59
2022-09-04T19:48:01.364Z,101213.66
2022-09-04T19:53:20.142Z,101212.28
2022-09-04T19:53:46.998Z,101210.78
2022-09-04T19:56:26.396Z,101218.22
2022-09-04T19:59:12.022Z,101223.94
2022-09-04T20:01:50.308Z,101228.16
2022-09-04T20:04:20.266Z,101223.25
2022-09-04T20:06:52.366Z,101219.53
2022-09-04T20:09:39.562Z,101214.78
2022-09-04T20:12:29.098Z,101217.81
2022-09-04T20:14:59.555Z,101220.84
2022-09-04T20:17:54.368Z,101219.81
2022-09-04T20:20:26.783Z,101225.69
2022-09-04T20:23:01.801Z,101235.66
2022-09-04T20:25:35.272Z,101235.66
2022-09-04T20:28:22.612Z,101240.22
2022-09-04T20:31:35.370Z,101240.22
2022-09-04T20:34:33.517Z,101248.13
2022-09-04T20:37:19.083Z,101240.22
2022-09-04T20:40:08.189Z,101243.59
2022-09-04T20:42:46.506Z,101248.84
2022-09-04T20:50:05.078Z,101247.84
2022-09-04T20:52:42.997Z,101246.66
2022-09-04T20:52:49.128Z,101256.44
2022-09-04T20:55:17.082Z,101246.50
2022-09-04T21:02:47.286Z,101249.88
2022-09-04T21:03:18.415Z,101245.50
2022-09-04T21:04:08.153Z,101245.81
2022-09-04T21:06:54.537Z,101254.91
2022-09-04T21:09:54.891Z,101253.94
2022-09-04T21:13:14.012Z,101247.31
2022-09-04T21:15:52.363Z,101239.59
2022-09-04T21:18:31.439Z,101235.03
2022-09-04T21:21:28.651Z,101234.00
2022-09-04T21:24:24.905Z,101222.53
2022-09-04T21:26:55.510Z,101225.41
2022-09-04T21:29:41.738Z,101223.91
2022-09-04T21:32:24.565Z,101231.31
2022-09-04T21:35:13.491Z,101225.38
2022-09-04T21:38:00.461Z,101218.44
2022-09-04T21:40:50.058Z,101228.53
2022-09-04T21:43:44.873Z,101217.22
2022-09-04T21:46:21.633Z,101220.94
2022-09-04T21:48:59.960Z,101220.41
2022-09-04T21:51:41.665Z,101205.75
2022-09-04T21:54:37.883Z,101201.34
2022-09-04T21:57:23.972Z,101219.41
2022-09-04T22:02:39.684Z,101215.03
2022-09-04T22:03:43.258Z,101210.97
2022-09-04T22:09:00.136Z,101208.75
2022-09-04T22:13:41.412Z,101206.53
2022-09-04T22:13:44.059Z,101206.22
2022-09-04T22:16:13.682Z,101211.56
2022-09-04T22:19:15.940Z,101202.63
2022-09-04T22:22:12.371Z,101196.53
2022-09-04T22:25:06.588Z,101203.97
2022-09-04T22:28:08.805Z,101200.44
2022-09-04T22:30:58.833Z,101203.13
2022-09-04T22:34:15.246Z,101196.41
2022-09-04T22:37:15.562Z,101192.53
2022-09-04T22:40:17.445Z,101171.78
2022-09-04T22:43:01.102Z,101165.22
2022-09-04T22:45:59.742Z,101169.28
2022-09-04T22:49:11.866Z,101170.81
2022-09-04T22:51:52.155Z,101167.91
2022-09-04T22:54:23.334Z,101164.38
2022-09-04T22:56:57.318Z,101173.16
2022-09-04T22:59:46.139Z,101164.19
2022-09-04T23:02:46.054Z,101162.38
2022-09-04T23:05:23.954Z,101146.31
2022-09-04T23:13:48.454Z,101142.59
2022-09-04T23:13:59.988Z,101141.09
2022-09-04T23:14:46.897Z,101149.34
2022-09-04T23:17:19.745Z,101152.75
2022-09-04T23:25:50.720Z,101143.81
2022-09-04T23:26:45.677Z,101134.00
2022-09-04T23:26:59.619Z,101143.81
2022-09-04T23:30:02.350Z,101134.50
2022-09-04T23:32:47.069Z,101131.47
2022-09-04T23:35:24.046Z,101118.84
2022-09-04T23:38:03.473Z,101124.91
2022-09-04T23:40:42.107Z,101112.09
2022-09-04T23:43:26.931Z,101112.75
2022-09-04T23:46:13.376Z,101106.38
2022-09-04T23:49:05.475Z,101100.47
2022-09-04T23:52:03.382Z,101088.97
2022-09-04T23:54:55.626Z,101082.72
2022-09-04T23:57:34.893Z,101086.59
